Mission Field
KLVM : now visible

Airfield :











YOU CAN JOIN US ON...

 
LOGIN :

Register | Disclaimer

   EN    FR    IT 

 









Legend :    VFR   Marginal VFR   IFR   Intensive IFR   Very Intensive IFR
Visi :
Ceiling :
>= 8 km
>= 3000ft
5 to 8 km
1000 to 3000 ft
1500m to 5 km
500 to 1000 ft
800 to 1500m
200 to 500 ft
< 800m
< 200 ft
Symbols :   Thunderstorms  Fog  Heavy snow  Heavy precipitations  Wind > 20 kt






- Airport Elevation : 4660 ft


KLVM - Mission Field

CURRENT METAR :
  • 130553Z AUTO 19005KT 10SM CLR 15/04 A3001 RMK AO2 SLP117 60001 T01500039 10244 20144 51027

EXPIRED METARs :
  • 130453Z AUTO 28004KT 10SM CLR 18/02 A3000 RMK AO2 SLP109 T01830022
  • 130353Z AUTO 32018G25KT 10SM CLR 20/02 A2997 RMK AO2 SLP099 T02000022

TAF KLVM
Valid from the 13 at 06:00 until the 14 at 06:00 UTC


130543Z 1306/1406 28004KT P6SM SCT200
FM132100 27010KT P6SM VCTS SCT060CB BKN100
FM140000 33015G24KT P6SM VCTS BKN060CB
KZLC FIR / North America



MET'MAP, your aeronautical weather chart ! - Copyright ORBIFLY December 2007 - Disclaimer

ORBIFLY MET'MAP TEAM :

Programming & Development : Alexandra Zaïnal
Concept & original design : Baudouin d'Aumeries
Assistance for programming : Marc-Olivier Méhu
Technical & hardware support : Manuel Goepfert

Contact : metmap@orbifly.com




SOURCES & CREDITS :

   NOAA       Earth
Advisory